Time;durP1;ratioP1;P1;durP2;ratioP2;P2;SDS_P1;SDS_P2;PMS_P1;PMS_P2;Temp;Humidity;BMP_temperature;BMP_pressure;BME280_temperature;BME280_humidity;BME280_pressure;Samples;Min_cycle;Max_cycle;Signal;HPM_P1;HPM_P2
2023/03/27 00:00:59;;;;;;;8.85;1.60;;;;;;;1.03;100.00;101479.84;4967544;28;20061;-90
2023/03/27 00:03:27;;;;;;;10.20;1.90;;;;;;;1.08;100.00;101492.75;4979098;28;20726;-89
2023/03/27 00:06:05;;;;;;;9.45;1.67;;;;;;;0.94;100.00;101494.09;4980860;28;20928;-89
2023/03/27 00:08:31;;;;;;;10.30;2.47;;;;;;;0.97;100.00;101509.47;4980696;28;20717;-89
2023/03/27 00:10:57;;;;;;;6.45;1.52;;;;;;;0.95;100.00;101511.13;4978133;28;20042;-90
2023/03/27 00:13:22;;;;;;;5.00;1.45;;;;;;;0.93;100.00;101513.66;4979672;28;20042;-89
2023/03/27 00:15:49;;;;;;;8.27;1.95;;;;;;;0.86;100.00;101509.19;4979443;28;20537;-90
2023/03/27 00:18:15;;;;;;;10.05;1.65;;;;;;;0.89;100.00;101518.63;4980143;28;20566;-89
2023/03/27 00:20:41;;;;;;;6.68;1.65;;;;;;;0.82;100.00;101515.03;4978174;28;20049;-90
2023/03/27 00:23:06;;;;;;;9.88;1.90;;;;;;;0.86;100.00;101528.75;4979105;28;20396;-89
2023/03/27 00:25:32;;;;;;;11.43;2.15;;;;;;;0.79;100.00;101526.03;4979872;28;20037;-89
2023/03/27 00:27:59;;;;;;;6.63;1.65;;;;;;;0.83;100.00;101541.41;4979488;28;20026;-90
2023/03/27 00:30:27;;;;;;;5.82;1.80;;;;;;;0.83;100.00;101539.72;4979238;28;20096;-90
2023/03/27 00:32:54;;;;;;;6.90;1.67;;;;;;;0.85;100.00;101535.53;4978259;28;20042;-90
2023/03/27 00:35:21;;;;;;;8.85;1.75;;;;;;;0.94;100.00;101542.59;4977899;28;20042;-89
2023/03/27 00:37:47;;;;;;;11.02;2.00;;;;;;;0.98;100.00;101535.03;4979968;28;20031;-89
2023/03/27 00:40:19;;;;;;;6.32;1.73;;;;;;;1.10;100.00;101543.00;4980085;28;20041;-89
2023/03/27 00:42:47;;;;;;;6.15;1.70;;;;;;;1.16;100.00;101548.25;4967361;28;20041;-89
2023/03/27 00:45:25;;;;;;;8.75;2.00;;;;;;;1.13;100.00;101543.09;4979864;28;20168;-89
2023/03/27 00:47:55;;;;;;;6.80;1.80;;;;;;;1.22;100.00;101555.25;4978675;28;20573;-90
2023/03/27 00:50:29;;;;;;;4.55;1.80;;;;;;;1.22;100.00;101545.03;4979327;28;20041;-89
2023/03/27 00:52:58;;;;;;;7.45;1.65;;;;;;;1.34;100.00;101558.09;4966553;28;20034;-89
2023/03/27 00:55:27;;;;;;;10.10;1.90;;;;;;;1.48;100.00;101559.31;4979704;28;20045;-90
2023/03/27 00:57:59;;;;;;;10.40;1.80;;;;;;;1.51;100.00;101554.25;4978422;28;20426;-90
2023/03/27 01:00:26;;;;;;;8.20;1.60;;;;;;;1.67;100.00;101573.38;4995292;28;20567;-89
2023/03/27 01:02:51;;;;;;;11.25;1.63;;;;;;;1.76;100.00;101572.75;4977726;28;20121;-90
2023/03/27 01:05:19;;;;;;;5.60;1.85;;;;;;;1.86;100.00;101577.22;4979512;28;20109;-89
2023/03/27 01:07:46;;;;;;;8.57;1.83;;;;;;;1.89;100.00;101569.66;4979274;28;20026;-89
2023/03/27 01:10:12;;;;;;;5.78;1.80;;;;;;;1.99;100.00;101576.69;4979775;28;20034;-89
2023/03/27 01:12:55;;;;;;;9.65;1.92;;;;;;;2.06;100.00;101583.66;4978455;28;20026;-89
2023/03/27 01:15:42;;;;;;;6.73;1.80;;;;;;;2.16;100.00;101579.63;4976537;28;20038;-89
2023/03/27 01:18:47;;;;;;;7.47;2.13;;;;;;;2.25;100.00;101585.81;4978083;28;20589;-89
2023/03/27 01:21:35;;;;;;;7.50;1.70;;;;;;;2.32;100.00;101587.66;4966555;28;20077;-89
2023/03/27 01:24:30;;;;;;;6.25;1.52;;;;;;;2.30;100.00;101571.44;4979438;28;20046;-89
2023/03/27 01:27:09;;;;;;;8.57;1.92;;;;;;;2.40;100.00;101580.16;4978692;28;20109;-90
2023/03/27 01:29:52;;;;;;;7.65;1.40;;;;;;;2.45;100.00;101588.81;4978367;28;20406;-89
2023/03/27 01:33:07;;;;;;;8.05;1.70;;;;;;;2.50;100.00;101591.47;4977410;28;20031;-90
2023/03/27 01:35:45;;;;;;;3.80;1.40;;;;;;;2.51;100.00;101594.06;4978680;28;20108;-90
2023/03/27 01:38:33;;;;;;;9.27;1.30;;;;;;;2.47;100.00;101604.19;4965038;28;20301;-90
2023/03/27 01:41:13;;;;;;;14.45;1.52;;;;;;;2.45;100.00;101613.53;4958091;28;20601;-89
2023/03/27 01:44:03;;;;;;;5.50;1.70;;;;;;;2.44;100.00;101614.34;4978520;28;21028;-89
2023/03/27 01:46:45;;;;;;;6.75;1.70;;;;;;;2.36;100.00;101602.25;4977314;28;20089;-89
2023/03/27 01:49:20;;;;;;;8.35;1.60;;;;;;;2.41;100.00;101606.59;4975752;28;20475;-89
2023/03/27 01:51:48;;;;;;;;;;;;;;;2.48;100.00;101618.69;4959080;28;20026;-89
2023/03/27 01:54:29;;;;;;;7.90;1.85;;;;;;;2.44;100.00;101622.03;4978321;28;19996;-90
2023/03/27 01:57:01;;;;;;;4.32;1.30;;;;;;;2.48;100.00;101621.25;4976514;28;20034;-89
2023/03/27 01:59:32;;;;;;;8.90;1.98;;;;;;;2.48;100.00;101621.25;4972677;28;20141;-90
2023/03/27 02:02:04;;;;;;;7.13;1.73;;;;;;;2.51;100.00;101627.31;4957545;28;20023;-90
2023/03/27 02:04:37;;;;;;;9.90;1.67;;;;;;;2.52;100.00;101626.50;4973778;28;20038;-90
2023/03/27 02:07:07;;;;;;;6.93;1.90;;;;;;;2.50;100.00;101622.16;4958785;28;20066;-89
2023/03/27 02:09:37;;;;;;;4.78;1.70;;;;;;;2.46;100.00;101621.22;4961763;28;20030;-87
2023/03/27 02:12:32;;;;;;;9.85;2.05;;;;;;;2.55;100.00;101635.91;4959184;28;20034;-90
2023/03/27 02:15:10;;;;;;;;;;;;;;;2.59;100.00;101642.84;4958797;28;20031;-90
2023/03/27 02:17:40;;;;;;;6.05;1.98;;;;;;;2.53;100.00;101650.34;4957483;28;19945;-90
2023/03/27 02:20:11;;;;;;;4.68;1.90;;;;;;;2.45;100.00;101649.34;4973581;28;20038;-89
2023/03/27 02:22:40;;;;;;;7.75;2.25;;;;;;;2.35;100.00;101644.03;4958250;28;20073;-90
2023/03/27 02:25:28;;;;;;;6.45;2.00;;;;;;;2.39;100.00;101667.97;4958445;28;20038;-89
2023/03/27 02:28:13;;;;;;;6.88;2.05;;;;;;;2.29;100.00;101663.47;4955096;28;20471;-89
2023/03/27 02:31:00;;;;;;;6.45;2.10;;;;;;;2.18;100.00;101665.81;4955122;28;20058;-89
2023/03/27 02:34:07;;;;;;;5.20;2.00;;;;;;;2.06;100.00;101665.50;4957806;28;20031;-89
2023/03/27 02:36:52;;;;;;;7.40;1.98;;;;;;;2.03;100.00;101672.22;4921016;29;20062;-89
2023/03/27 02:39:35;;;;;;;4.22;1.95;;;;;;;1.97;100.00;101673.81;4922392;29;20036;-89
2023/03/27 02:42:14;;;;;;;7.25;1.95;;;;;;;1.84;100.00;101665.81;4941065;28;20448;-89
2023/03/27 02:45:09;;;;;;;8.82;2.30;;;;;;;1.76;100.00;101668.19;4958277;28;20046;-89
2023/03/27 02:47:42;;;;;;;12.20;2.00;;;;;;;1.77;100.00;101674.16;4955886;28;20039;-89
2023/03/27 02:50:15;;;;;;;10.07;2.30;;;;;;;1.71;100.00;101676.53;4957204;28;20309;-89
2023/03/27 02:52:46;;;;;;;14.48;2.50;;;;;;;1.61;100.00;101680.56;4958766;28;20333;-89
2023/03/27 02:55:19;;;;;;;7.53;2.20;;;;;;;1.55;100.00;101680.41;4957288;28;20098;-89
2023/03/27 02:57:50;;;;;;;9.85;2.50;;;;;;;1.48;100.00;101687.03;4971165;28;20059;-88
2023/03/27 03:00:24;;;;;;;11.38;2.25;;;;;;;1.39;100.00;101684.22;4958755;28;20093;-89
2023/03/27 03:02:59;;;;;;;12.80;2.50;;;;;;;1.43;100.00;101696.22;4957682;28;20054;-89
2023/03/27 03:05:25;;;;;;;5.03;2.35;;;;;;;1.37;100.00;101693.53;4957212;28;20122;-89
2023/03/27 03:07:53;;;;;;;6.32;2.20;;;;;;;1.40;100.00;101700.41;4953347;28;20031;-89
2023/03/27 03:10:20;;;;;;;12.43;2.85;;;;;;;1.31;100.00;101706.13;4971744;28;20997;-90
2023/03/27 03:12:45;;;;;;;8.43;2.53;;;;;;;1.32;100.00;101712.97;4961232;28;20029;-89
2023/03/27 03:15:11;;;;;;;9.95;2.40;;;;;;;1.25;100.00;101712.75;4957358;28;20030;-89
2023/03/27 03:17:37;;;;;;;7.93;2.63;;;;;;;1.25;100.00;101728.94;4957931;28;20054;-89
2023/03/27 03:20:04;;;;;;;9.23;2.30;;;;;;;1.18;100.00;101730.47;4958320;28;20047;-89
2023/03/27 03:22:30;;;;;;;13.50;2.75;;;;;;;1.19;100.00;101742.41;4956386;28;20030;-89
2023/03/27 03:24:56;;;;;;;7.68;2.15;;;;;;;1.13;100.00;101737.13;4961560;28;20023;-90
2023/03/27 03:27:22;;;;;;;6.20;2.17;;;;;;;0.99;100.00;101725.66;4957607;28;20031;-90
2023/03/27 03:29:48;;;;;;;8.32;2.25;;;;;;;0.91;100.00;101731.34;4957216;28;20029;-89
2023/03/27 03:32:14;;;;;;;5.95;2.20;;;;;;;0.92;100.00;101741.59;4957521;28;20038;-89
2023/03/27 03:34:45;;;;;;;7.40;2.17;;;;;;;0.88;100.00;101737.25;4958289;28;20026;-89
2023/03/27 03:37:11;;;;;;;8.57;2.35;;;;;;;0.84;100.00;101743.06;4957323;28;20026;-89
2023/03/27 03:39:36;;;;;;;7.53;2.22;;;;;;;0.84;100.00;101748.16;4958961;28;20033;-89
2023/03/27 03:42:02;;;;;;;5.40;2.30;;;;;;;0.82;100.00;101767.66;4961437;28;20039;-89
2023/03/27 03:44:27;;;;;;;7.30;2.30;;;;;;;0.77;100.00;101761.53;4976018;28;20110;-89
2023/03/27 03:46:53;;;;;;;7.72;2.20;;;;;;;0.67;100.00;101754.44;4949046;28;20086;-89
2023/03/27 03:49:19;;;;;;;6.50;2.22;;;;;;;0.64;100.00;101754.34;4961170;28;20031;-89
2023/03/27 03:51:45;;;;;;;9.75;2.70;;;;;;;0.65;100.00;101764.59;4964651;28;20643;-89
2023/03/27 03:54:10;;;;;;;7.68;2.20;;;;;;;0.57;100.00;101753.28;4960915;28;20034;-90
2023/03/27 03:56:40;;;;;;;7.78;2.30;;;;;;;0.57;100.00;101762.59;4960805;28;20097;-89
2023/03/27 03:59:09;;;;;;;8.85;2.70;;;;;;;0.65;100.00;101774.78;4975916;28;20495;-89
2023/03/27 04:01:34;;;;;;;7.38;2.30;;;;;;;0.61;100.00;101780.63;4961198;28;20090;-89
2023/03/27 04:04:01;;;;;;;8.68;2.10;;;;;;;0.58;100.00;101790.72;4959151;28;20213;-89
2023/03/27 04:06:29;;;;;;;7.28;2.20;;;;;;;0.50;100.00;101773.44;4964551;28;20558;-89
2023/03/27 04:08:56;;;;;;;6.10;1.98;;;;;;;0.50;100.00;101781.09;4961580;28;20027;-89
2023/03/27 04:14:56;;;;;;;3.97;1.85;;;;;;;0.50;100.00;101796.38;4939241;28;20170;-89
2023/03/27 04:17:25;;;;;;;6.80;2.10;;;;;;;0.53;100.00;101810.13;4963431;28;20114;-89
2023/03/27 04:19:53;;;;;;;4.53;1.80;;;;;;;0.47;100.00;101802.28;4975120;28;20491;-89
2023/03/27 04:22:21;;;;;;;7.07;2.03;;;;;;;0.49;100.00;101807.41;4962881;28;20580;-89
2023/03/27 04:24:50;;;;;;;10.30;2.63;;;;;;;0.52;100.00;101815.16;4960893;28;20062;-89
2023/03/27 04:27:22;;;;;;;7.22;2.10;;;;;;;0.50;100.00;101822.75;4958669;28;20031;-87
2023/03/27 04:29:47;;;;;;;6.80;1.83;;;;;;;0.46;100.00;101820.06;4958908;28;20109;-90
2023/03/27 04:32:19;;;;;;;7.40;1.77;;;;;;;0.46;100.00;101828.59;4959700;28;20033;-89
2023/03/27 04:34:45;;;;;;;7.07;1.98;;;;;;;0.37;100.00;101821.50;4960336;28;20031;-90
2023/03/27 04:37:12;;;;;;;8.30;1.90;;;;;;;0.46;100.00;101838.78;4962045;28;20584;-89
2023/03/27 04:39:45;;;;;;;6.93;1.80;;;;;;;0.46;100.00;101831.13;4960604;28;20045;-91
2023/03/27 04:42:12;;;;;;;4.95;1.88;;;;;;;0.57;100.00;101842.56;4957831;28;20072;-90
2023/03/27 04:44:39;;;;;;;5.43;1.88;;;;;;;0.57;100.00;101828.94;4960515;28;20530;-89
2023/03/27 04:47:05;;;;;;;8.93;2.30;;;;;;;0.68;100.00;101845.47;4959382;28;20558;-89
2023/03/27 04:49:41;;;;;;;6.65;2.30;;;;;;;0.77;100.00;101854.28;4973916;28;20368;-89
2023/03/27 04:52:08;;;;;;;6.50;2.22;;;;;;;0.83;100.00;101865.47;4963586;28;20034;-89
2023/03/27 04:54:34;;;;;;;9.02;2.17;;;;;;;0.81;100.00;101854.38;4975179;28;20548;-89
2023/03/27 04:57:00;;;;;;;5.65;2.10;;;;;;;0.83;100.00;101860.38;4956875;28;20027;-89
2023/03/27 04:59:36;;;;;;;7.30;2.10;;;;;;;0.82;100.00;101866.31;4973715;28;20042;-89
2023/03/27 05:02:03;;;;;;;8.25;2.20;;;;;;;0.78;100.00;101866.22;4962610;28;20513;-91
2023/03/27 05:04:30;;;;;;;5.15;2.38;;;;;;;0.70;100.00;101854.88;4959466;28;20038;-92
2023/03/27 05:06:58;;;;;;;5.82;2.20;;;;;;;0.77;100.00;101874.69;4959567;28;20281;-90
2023/03/27 05:09:23;;;;;;;7.13;2.25;;;;;;;0.66;100.00;101864.94;4963726;28;20037;-89
2023/03/27 05:11:49;;;;;;;7.70;2.45;;;;;;;0.72;100.00;101890.66;4964353;28;20521;-89
2023/03/27 05:14:22;;;;;;;8.00;2.15;;;;;;;0.62;100.00;101876.72;4959155;28;20043;-89
2023/03/27 05:16:51;;;;;;;6.30;2.10;;;;;;;0.63;100.00;101887.78;4959210;28;20455;-90
2023/03/27 05:19:18;;;;;;;5.90;2.17;;;;;;;0.61;100.00;101892.00;4974668;28;20035;-89
2023/03/27 05:21:45;;;;;;;8.20;2.55;;;;;;;0.62;100.00;101898.81;4959278;28;20051;-90
2023/03/27 05:24:11;;;;;;;9.65;2.95;;;;;;;0.60;100.00;101901.34;4975812;28;20031;-90
2023/03/27 05:26:38;;;;;;;9.43;2.40;;;;;;;0.62;100.00;101903.91;4960643;28;20031;-89
2023/03/27 05:29:04;;;;;;;7.55;2.35;;;;;;;0.62;100.00;101909.88;4959942;28;20384;-90
2023/03/27 05:31:31;;;;;;;9.65;2.45;;;;;;;0.66;100.00;101914.28;4959182;28;20093;-87
2023/03/27 05:33:59;;;;;;;8.43;2.10;;;;;;;0.64;100.00;101905.72;4960006;28;20050;-88
2023/03/27 05:36:28;;;;;;;9.35;2.38;;;;;;;0.67;100.00;101917.72;4960883;28;20077;-90
2023/03/27 05:38:56;;;;;;;7.15;2.38;;;;;;;0.71;100.00;101922.97;4960380;28;20113;-88
2023/03/27 05:41:22;;;;;;;10.38;2.22;;;;;;;0.74;100.00;101923.06;4960445;28;20082;-88
2023/03/27 05:43:49;;;;;;;8.57;2.55;;;;;;;0.81;100.00;101925.84;4975120;28;20031;-88
2023/03/27 05:46:15;;;;;;;8.88;2.50;;;;;;;0.86;100.00;101937.94;4974112;28;20446;-88
2023/03/27 05:48:40;;;;;;;9.20;2.75;;;;;;;0.93;100.00;101932.19;4959056;28;20494;-90
2023/03/27 05:51:06;;;;;;;11.88;2.55;;;;;;;0.94;100.00;101920.31;4959884;28;20030;-91
2023/03/27 05:53:31;;;;;;;10.80;2.53;;;;;;;1.16;100.00;101944.00;4965455;28;20209;-90
2023/03/27 05:56:00;;;;;;;8.85;2.75;;;;;;;1.20;100.00;101924.56;4959529;28;20058;-91
2023/03/27 05:58:26;;;;;;;9.27;2.67;;;;;;;1.43;100.00;101932.97;4974840;28;20117;-91
2023/03/27 06:00:51;;;;;;;8.65;2.50;;;;;;;1.61;100.00;101941.16;4974334;28;20035;-89
2023/03/27 06:03:18;;;;;;;9.45;2.78;;;;;;;1.83;100.00;101938.44;4960293;28;20031;-91
2023/03/27 06:05:51;;;;;;;12.13;2.65;;;;;;;2.33;100.00;101931.31;4960903;28;20026;-91
2023/03/27 06:08:16;;;;;;;11.50;2.90;;;;;;;3.27;100.00;101938.00;4960292;28;20035;-90
2023/03/27 06:10:42;;;;;;;9.80;2.70;;;;;;;4.05;100.00;101949.13;4958159;28;20026;-90
2023/03/27 06:13:12;;;;;;;13.60;2.53;;;;;;;4.65;100.00;101926.34;4974753;28;20447;-90
2023/03/27 06:15:40;;;;;;;6.00;1.95;;;;;;;5.30;100.00;101933.41;4965178;28;20042;-90
2023/03/27 06:18:06;;;;;;;8.20;2.08;;;;;;;5.72;100.00;101940.91;4959926;28;20480;-91
2023/03/27 06:20:34;;;;;;;6.97;1.90;;;;;;;5.70;100.00;101948.59;4957508;28;20139;-91
2023/03/27 06:23:00;;;;;;;6.40;1.80;;;;;;;5.29;100.00;101950.53;4960679;28;20026;-90
2023/03/27 06:25:27;;;;;;;6.65;1.80;;;;;;;4.90;100.00;101955.03;4960270;28;20030;-91
2023/03/27 06:27:53;;;;;;;5.18;1.60;;;;;;;4.47;100.00;101956.81;4960434;28;20593;-92
2023/03/27 06:30:22;;;;;;;3.75;1.45;;;;;;;4.17;100.00;101959.63;4962783;28;20043;-92
2023/03/27 06:32:53;;;;;;;3.15;1.05;;;;;;;3.93;100.00;101964.28;4975478;28;20297;-92
2023/03/27 06:35:22;;;;;;;6.35;1.33;;;;;;;3.76;100.00;101971.59;4975654;28;20154;-94
2023/03/27 06:37:49;;;;;;;3.65;1.20;;;;;;;3.50;100.00;101973.56;4974524;28;20030;-93
2023/03/27 06:40:23;;;;;;;3.88;1.30;;;;;;;3.24;100.00;101966.09;4958425;28;20031;-93
2023/03/27 06:43:29;;;;;;;3.67;1.50;;;;;;;3.06;100.00;101974.19;4974030;28;20035;-94
2023/03/27 06:45:58;;;;;;;4.15;1.30;;;;;;;2.93;100.00;101982.41;4959242;28;20071;-94
2023/03/27 06:48:27;;;;;;;5.47;1.40;;;;;;;3.19;100.00;101994.16;4963548;28;20054;-94
2023/03/27 06:50:52;;;;;;;5.70;1.48;;;;;;;3.82;100.00;101976.84;4965997;28;20027;-90
2023/03/27 06:53:18;;;;;;;3.25;1.30;;;;;;;4.54;100.00;101986.03;4961462;28;21036;-90
2023/03/27 06:55:44;;;;;;;7.55;1.60;;;;;;;4.94;100.00;102001.34;4959772;28;20037;-91
2023/03/27 06:58:13;;;;;;;6.57;1.58;;;;;;;5.34;100.00;101991.72;4965200;28;20093;-91
2023/03/27 07:00:40;;;;;;;7.28;1.52;;;;;;;5.84;100.00;102010.53;4978705;28;20025;-91
2023/03/27 07:03:08;;;;;;;4.30;1.40;;;;;;;6.03;100.00;102004.81;4979983;28;20488;-90
2023/03/27 07:05:36;;;;;;;4.13;1.40;;;;;;;6.40;100.00;102003.59;4978195;28;20652;-91
2023/03/27 07:08:03;;;;;;;5.72;1.60;;;;;;;6.78;99.61;102010.88;4979483;28;20405;-91
2023/03/27 07:10:32;;;;;;;4.65;1.88;;;;;;;7.17;98.51;102006.09;4976899;28;20023;-91
2023/03/27 07:12:57;;;;;;;4.78;2.35;;;;;;;7.06;94.33;102016.31;4979501;28;20041;-91
2023/03/27 07:15:33;;;;;;;4.30;1.50;;;;;;;6.71;93.54;102010.81;4965918;28;20034;-93
2023/03/27 07:18:01;;;;;;;4.38;1.50;;;;;;;6.62;92.70;102021.00;4970989;28;20056;-92
2023/03/27 07:20:29;;;;;;;4.30;1.42;;;;;;;6.48;92.63;102035.44;4965948;28;20038;-90
2023/03/27 07:22:56;;;;;;;5.45;1.60;;;;;;;6.30;92.99;102037.78;4971289;28;20027;-90
2023/03/27 07:25:27;;;;;;;7.68;1.50;;;;;;;6.25;92.62;102029.13;4981234;28;20041;-90
2023/03/27 07:27:59;;;;;;;4.35;1.55;;;;;;;6.33;93.69;102038.69;4982505;28;20497;-91
2023/03/27 07:30:26;;;;;;;4.40;1.60;;;;;;;6.74;93.00;102038.31;4964886;28;20414;-91
2023/03/27 07:32:52;;;;;;;3.80;1.20;;;;;;;7.05;92.17;102042.94;4982088;28;20490;-91
2023/03/27 07:35:18;;;;;;;5.53;1.50;;;;;;;7.17;88.05;102047.34;4980963;28;20042;-89
2023/03/27 07:37:44;;;;;;;5.70;1.70;;;;;;;7.10;88.80;102041.25;4983048;28;20018;-90
2023/03/27 07:40:14;;;;;;;4.03;1.63;;;;;;;6.85;86.99;102034.13;4981274;28;20049;-90
2023/03/27 07:42:47;;;;;;;4.53;1.50;;;;;;;6.87;87.47;102053.06;4982384;28;20027;-90
2023/03/27 07:45:13;;;;;;;3.40;1.30;;;;;;;6.81;85.92;102050.44;4981535;28;20085;-92
2023/03/27 07:47:41;;;;;;;4.53;1.65;;;;;;;6.69;86.19;102050.25;4982168;28;20056;-91
2023/03/27 07:50:12;;;;;;;5.20;1.63;;;;;;;6.77;84.57;102040.06;4980452;28;20018;-92
2023/03/27 07:52:46;;;;;;;3.47;1.80;;;;;;;6.95;89.56;102061.75;4982089;28;20069;-91
2023/03/27 07:55:16;;;;;;;6.70;1.83;;;;;;;6.77;83.91;102040.91;4982280;28;20113;-91
2023/03/27 07:57:47;;;;;;;7.80;1.70;;;;;;;6.65;87.69;102059.69;4981319;28;20050;-93
2023/03/27 08:00:21;;;;;;;5.82;1.70;;;;;;;6.49;88.13;102054.31;4982397;28;20043;-92
2023/03/27 08:02:49;;;;;;;5.65;1.60;;;;;;;6.63;87.55;102063.06;4981326;28;20042;-92
2023/03/27 08:05:18;;;;;;;5.68;1.98;;;;;;;6.87;85.68;102060.81;4981827;28;20034;-91
2023/03/27 08:07:46;;;;;;;8.07;1.90;;;;;;;7.70;87.77;102073.63;4971075;28;20506;-91
2023/03/27 08:10:15;;;;;;;4.28;1.67;;;;;;;8.81;87.06;102065.63;4982355;28;20022;-93
2023/03/27 08:12:41;;;;;;;6.47;1.77;;;;;;;9.94;85.20;102053.66;4982771;28;20038;-92
2023/03/27 08:15:08;;;;;;;5.95;1.80;;;;;;;10.44;75.17;102062.19;4980274;28;20094;-92
2023/03/27 08:17:34;;;;;;;12.98;2.20;;;;;;;10.45;77.09;102069.09;4981176;28;20027;-92
2023/03/27 08:20:08;;;;;;;4.25;1.77;;;;;;;10.27;77.56;102064.84;4981380;28;20034;-92
2023/03/27 08:22:37;;;;;;;6.20;1.92;;;;;;;10.57;68.26;102078.59;4980531;28;20029;-92
2023/03/27 08:25:05;;;;;;;6.38;1.63;;;;;;;11.24;72.02;102065.25;4963819;28;20027;-91
2023/03/27 08:27:31;;;;;;;4.65;1.60;;;;;;;11.42;68.40;102062.50;4982742;28;20030;-91
2023/03/27 08:29:57;;;;;;;7.25;1.50;;;;;;;11.58;72.04;102076.25;4983163;28;20018;-92
2023/03/27 08:32:23;;;;;;;3.50;1.55;;;;;;;11.24;65.78;102071.31;4983295;28;20398;-92
2023/03/27 08:34:48;;;;;;;2.53;1.30;;;;;;;11.43;69.04;102082.41;4982751;28;20553;-92
2023/03/27 08:37:14;;;;;;;6.88;1.65;;;;;;;11.97;70.35;102068.13;4982782;28;20034;-92
2023/03/27 08:39:39;;;;;;;5.93;1.30;;;;;;;12.17;64.57;102073.13;4971115;28;20037;-92
2023/03/27 08:42:07;;;;;;;6.93;1.60;;;;;;;12.44;66.58;102077.16;4982368;28;20035;-92
2023/03/27 08:44:35;;;;;;;4.75;1.25;;;;;;;12.84;60.35;102106.13;4980840;28;20030;-93
2023/03/27 08:47:12;;;;;;;4.60;1.13;;;;;;;12.85;63.89;102084.44;4996780;28;20114;-92
2023/03/27 08:49:48;;;;;;;4.15;1.13;;;;;;;13.25;61.06;102090.84;4980631;28;20119;-90
2023/03/27 08:52:18;;;;;;;3.30;1.20;;;;;;;12.98;58.70;102080.78;4970570;28;20706;-91
2023/03/27 08:54:49;;;;;;;5.57;1.02;;;;;;;12.98;62.14;102081.66;4980662;28;20438;-91
2023/03/27 08:57:22;;;;;;;5.10;1.30;;;;;;;12.85;58.13;102089.63;4970439;28;20030;-91
2023/03/27 08:59:52;;;;;;;7.55;1.17;;;;;;;12.80;55.79;102105.31;4980006;28;20085;-92
2023/03/27 09:02:24;;;;;;;4.90;1.25;;;;;;;12.43;56.90;102104.88;4996342;28;20163;-91
2023/03/27 09:05:06;;;;;;;6.60;1.75;;;;;;;13.12;63.88;102107.50;4970680;28;20110;-91
2023/03/27 09:07:36;;;;;;;2.85;1.00;;;;;;;12.70;59.50;102102.84;4965233;28;20081;-91
2023/03/27 09:10:11;;;;;;;4.22;1.13;;;;;;;12.15;55.31;102112.09;4981512;28;20114;-91
2023/03/27 09:12:55;;;;;;;5.50;1.00;;;;;;;11.27;59.17;102123.19;4981500;28;20502;-92
2023/03/27 09:15:25;;;;;;;4.72;0.90;;;;;;;10.64;59.00;102114.81;4979706;28;20023;-90
2023/03/27 09:17:53;;;;;;;5.47;0.80;;;;;;;10.44;59.13;102132.16;4970063;28;20038;-91
2023/03/27 09:20:41;;;;;;;4.72;0.95;;;;;;;10.26;60.47;102133.09;4980193;28;20022;-91
2023/03/27 09:23:12;;;;;;;4.95;1.05;;;;;;;9.59;59.70;102131.34;4979733;28;20023;-92
2023/03/27 09:26:06;;;;;;;4.72;1.00;;;;;;;9.43;62.98;102130.47;4978869;28;20042;-92
2023/03/27 09:28:49;;;;;;;2.17;0.80;;;;;;;9.43;65.60;102143.41;4956768;28;20038;-91
2023/03/27 09:31:24;;;;;;;3.97;0.90;;;;;;;8.94;67.92;102139.84;4979723;28;20375;-91
2023/03/27 09:34:17;;;;;;;3.65;0.93;;;;;;;8.27;72.48;102136.84;4981414;28;20041;-92
2023/03/27 09:36:49;;;;;;;3.03;1.20;;;;;;;7.55;75.21;102156.06;4963641;28;20045;-92
2023/03/27 09:39:51;;;;;;;2.22;1.02;;;;;;;6.94;81.33;102151.94;4981279;28;20038;-91
2023/03/27 09:42:57;;;;;;;2.17;1.02;;;;;;;6.40;84.80;102152.94;4994665;28;20042;-92
2023/03/27 09:45:38;;;;;;;2.13;0.90;;;;;;;6.03;88.91;102148.06;4967608;28;20046;-92
2023/03/27 09:48:23;;;;;;;2.25;0.70;;;;;;;6.21;92.27;102167.22;4969965;28;20019;-92
2023/03/27 09:51:26;;;;;;;3.58;0.90;;;;;;;6.32;92.88;102157.13;4981400;28;20078;-92
2023/03/27 09:54:33;;;;;;;2.28;0.90;;;;;;;6.60;93.34;102154.09;4979818;28;20595;-91
2023/03/27 10:00:45;;;;;;;1.48;0.82;;;;;;;6.99;89.14;102158.88;4956895;28;20043;-92
2023/03/27 10:07:27;;;;;;;3.55;0.88;;;;;;;7.35;87.92;102165.31;4929305;28;20043;-91
2023/03/27 10:10:33;;;;;;;4.90;1.20;;;;;;;7.55;86.71;102156.06;4874653;29;20040;-91
2023/03/27 10:13:28;;;;;;;3.65;1.25;;;;;;;7.77;86.28;102165.75;4872283;29;20592;-92
2023/03/27 10:19:56;;;;;;;;;;;;;;;;;;;;;
2023/03/27 10:22:35;;;;;;;3.20;0.90;;;;;;;8.10;72.60;102169.44;4884327;29;20047;-92
2023/03/27 10:25:58;;;;;;;4.95;1.30;;;;;;;7.91;77.84;102171.84;4902624;28;20055;-92
2023/03/27 10:28:35;;;;;;;3.13;1.00;;;;;;;8.02;79.03;102164.22;4928698;29;20027;-93
2023/03/27 10:31:28;;;;;;;5.07;1.45;;;;;;;7.92;77.95;102173.59;4938623;29;20557;-92
2023/03/27 10:34:17;;;;;;;5.75;1.15;;;;;;;7.81;74.53;102180.38;4968598;28;20039;-91
2023/03/27 10:37:13;;;;;;;3.25;1.00;;;;;;;7.85;73.60;102164.06;4954599;28;20038;-92
2023/03/27 10:39:47;;;;;;;4.07;0.70;;;;;;;8.31;68.09;102167.94;4955896;28;20040;-92
2023/03/27 10:42:21;;;;;;;;;;;;;;;8.83;74.13;102185.44;4959085;28;20071;-92
2023/03/27 10:45:16;;;;;;;3.60;1.20;;;;;;;8.97;67.03;102210.50;4975136;28;20287;-92
2023/03/27 10:47:55;;;;;;;3.75;0.90;;;;;;;8.54;71.93;102214.56;4960416;28;20557;-92
2023/03/27 10:50:34;;;;;;;4.15;1.00;;;;;;;7.93;72.68;102241.59;4973824;28;20042;-91
2023/03/27 10:53:21;;;;;;;1.50;0.68;;;;;;;7.27;74.37;102249.47;4959980;28;20077;-90
2023/03/27 10:56:04;;;;;;;3.47;0.88;;;;;;;6.84;78.69;102251.47;4965135;28;20019;-89
2023/03/27 10:59:03;;;;;;;;;;;;;;;;;;;;;
2023/03/27 11:01:35;;;;;;;3.03;0.90;;;;;;;7.04;80.69;102275.81;4959562;28;20484;-90
2023/03/27 11:04:14;;;;;;;1.50;0.80;;;;;;;7.01;82.96;102285.22;4960520;28;20122;-91
2023/03/27 11:06:45;;;;;;;2.58;1.10;;;;;;;6.58;87.57;102294.00;4972978;28;20269;-90
2023/03/27 11:09:10;;;;;;;6.43;0.90;;;;;;;5.75;89.80;102283.06;4973988;28;20134;-90
2023/03/27 11:12:04;;;;;;;;;;;;;;;;;;;;;
2023/03/27 11:15:00;;;;;;;2.75;0.98;;;;;;;4.88;99.56;102255.56;4960005;28;20324;-90
2023/03/27 11:17:38;;;;;;;2.13;0.82;;;;;;;4.81;100.00;102253.69;4963499;28;20149;-91
2023/03/27 11:20:15;;;;;;;3.15;1.10;;;;;;;4.85;100.00;102255.47;4974833;28;20034;-92
2023/03/27 11:22:54;;;;;;;2.88;1.17;;;;;;;4.80;100.00;102254.50;4973479;28;20431;-90
2023/03/27 11:25:38;;;;;;;2.60;1.20;;;;;;;4.79;100.00;102260.47;4959551;28;20546;-92
2023/03/27 11:28:18;;;;;;;2.55;1.23;;;;;;;4.61;100.00;102242.97;4975593;28;20135;-91
2023/03/27 11:31:03;;;;;;;5.60;1.48;;;;;;;4.67;100.00;102258.50;4960093;28;20031;-91
2023/03/27 11:34:09;;;;;;;5.55;1.45;;;;;;;4.70;100.00;102258.59;4964748;28;20061;-91
2023/03/27 11:36:48;;;;;;;2.42;1.02;;;;;;;4.59;100.00;102229.22;4959113;28;20023;-92
2023/03/27 11:39:19;;;;;;;6.78;1.30;;;;;;;4.86;100.00;102261.50;4974177;28;20063;-92
2023/03/27 11:41:57;;;;;;;6.10;1.40;;;;;;;4.92;100.00;102251.34;4974071;28;20391;-92
2023/03/27 11:44:29;;;;;;;5.55;1.13;;;;;;;4.87;100.00;102240.09;4946644;28;20039;-91
2023/03/27 11:47:06;;;;;;;4.18;1.60;;;;;;;5.08;100.00;102266.28;4974573;28;20081;-92
2023/03/27 11:50:10;;;;;;;4.28;1.35;;;;;;;4.99;100.00;102232.66;4958998;28;20026;-92
2023/03/27 11:53:09;;;;;;;7.32;1.60;;;;;;;5.20;100.00;102237.38;4973600;28;20074;-91
2023/03/27 11:55:43;;;;;;;5.47;1.40;;;;;;;5.69;100.00;102249.50;4975242;28;20495;-92
2023/03/27 11:58:17;;;;;;;;;;;;;;;6.11;100.00;102247.75;4965374;28;20129;-92
2023/03/27 12:01:20;;;;;;;6.47;1.50;;;;;;;6.29;100.00;102237.75;4996547;28;20468;-91
2023/03/27 12:04:12;;;;;;;4.28;1.20;;;;;;;6.33;92.46;102270.44;4959871;28;20035;-92
2023/03/27 12:07:04;;;;;;;3.58;1.10;;;;;;;6.16;89.47;102277.00;4980824;28;20065;-91
2023/03/27 12:09:44;;;;;;;1.65;0.82;;;;;;;5.96;89.20;102278.34;4971489;28;20026;-91
2023/03/27 12:12:28;;;;;;;1.85;0.80;;;;;;;5.96;88.91;102275.78;4966241;28;20601;-91
2023/03/27 12:15:21;;;;;;;1.43;0.80;;;;;;;5.95;91.07;102256.91;4980945;28;20154;-92
2023/03/27 12:18:27;;;;;;;4.13;1.05;;;;;;;6.20;87.14;102265.94;4981224;28;20499;-91